Time;durP1;ratioP1;P1;durP2;ratioP2;P2;SDS_P1;SDS_P2;PMS_P1;PMS_P2;Temp;Humidity;BMP_temperature;BMP_pressure;BME280_temperature;BME280_humidity;BME280_pressure;Samples;Min_cycle;Max_cycle;Signal;HPM_P1;HPM_P2
2023/10/06 00:00:42;;;;;;;9.37;4.13;;;;;;;;;;5042698;28;20184;-89
2023/10/06 00:03:11;;;;;;;9.63;4.93;;;;;;;;;;5028630;28;20263;-89
2023/10/06 00:05:36;;;;;;;8.13;4.20;;;;;;;;;;5026875;28;20185;-90
2023/10/06 00:08:05;;;;;;;5.87;4.40;;;;;;;;;;5023801;28;20230;-89
2023/10/06 00:10:32;;;;;;;7.33;4.63;;;;;;;;;;5040171;28;20220;-88
2023/10/06 00:13:01;;;;;;;8.07;4.67;;;;;;;;;;5023091;28;20184;-88
2023/10/06 00:15:28;;;;;;;8.77;3.70;;;;;;;;;;5020391;28;20237;-89
2023/10/06 00:18:07;;;;;;;7.37;3.43;;;;;;;;;;5027476;28;20195;-89
2023/10/06 00:20:39;;;;;;;9.03;4.03;;;;;;;;;;5025751;28;20178;-89
2023/10/06 00:23:06;;;;;;;7.97;3.80;;;;;;;;;;5026328;28;20236;-88
2023/10/06 00:25:32;;;;;;;8.30;4.17;;;;;;;;;;5017617;28;20184;-89
2023/10/06 00:28:00;;;;;;;8.93;4.13;;;;;;;;;;5026417;28;20217;-88
2023/10/06 00:30:25;;;;;;;9.43;4.57;;;;;;;;;;5022299;28;20208;-89
2023/10/06 00:32:51;;;;;;;10.20;4.57;;;;;;;;;;5029353;28;20234;-88
2023/10/06 00:35:22;;;;;;;8.40;4.23;;;;;;;;;;5028525;28;20173;-89
2023/10/06 00:37:50;;;;;;;8.23;4.53;;;;;;;;;;5025891;28;20173;-89
2023/10/06 00:40:24;;;;;;;10.13;4.20;;;;;;;;;;5026539;28;20195;-88
2023/10/06 00:42:51;;;;;;;7.63;4.87;;;;;;;;;;5026192;28;20194;-89
2023/10/06 00:45:16;;;;;;;8.03;4.40;;;;;;;;;;5029887;28;20270;-88
2023/10/06 00:47:41;;;;;;;7.03;4.27;;;;;;;;;;5027184;28;20233;-89
2023/10/06 00:50:13;;;;;;;8.60;4.43;;;;;;;;;;5017954;28;20199;-88
2023/10/06 00:52:39;;;;;;;6.93;4.00;;;;;;;;;;5025144;28;20203;-89
2023/10/06 00:55:08;;;;;;;10.33;4.57;;;;;;;;;;5022547;28;20256;-90
2023/10/06 00:57:34;;;;;;;7.20;4.80;;;;;;;;;;5028091;28;20191;-88
2023/10/06 00:59:59;;;;;;;7.00;4.13;;;;;;;;;;5027409;28;20211;-88
2023/10/06 01:02:25;;;;;;;10.37;4.77;;;;;;;;;;5031145;28;20183;-88
2023/10/06 01:04:52;;;;;;;10.10;4.60;;;;;;;;;;5025180;28;20197;-89
2023/10/06 01:07:18;;;;;;;7.47;4.40;;;;;;;;;;5040792;28;20190;-88
2023/10/06 01:09:56;;;;;;;8.73;4.63;;;;;;;;;;5019398;28;20195;-89
2023/10/06 01:12:22;;;;;;;8.30;5.03;;;;;;;;;;5026422;28;20179;-88
2023/10/06 01:14:51;;;;;;;9.80;5.00;;;;;;;;;;5027057;28;20237;-89
2023/10/06 01:17:17;;;;;;;8.50;5.27;;;;;;;;;;5024277;28;20185;-89
2023/10/06 01:19:48;;;;;;;9.13;3.93;;;;;;;;;;5053022;28;20233;-88
2023/10/06 01:22:29;;;;;;;8.93;5.47;;;;;;;;;;5028021;28;20184;-89
2023/10/06 01:24:55;;;;;;;11.47;5.60;;;;;;;;;;5048105;28;20270;-88
2023/10/06 01:27:25;;;;;;;17.20;5.53;;;;;;;;;;5021765;28;20259;-89
2023/10/06 01:30:07;;;;;;;9.73;5.07;;;;;;;;;;5027257;28;20201;-89
2023/10/06 01:32:32;;;;;;;11.33;5.83;;;;;;;;;;5025207;28;20237;-89
2023/10/06 01:34:58;;;;;;;13.63;6.43;;;;;;;;;;5024157;28;20216;-89
2023/10/06 01:37:23;;;;;;;8.83;5.33;;;;;;;;;;5020893;28;20290;-88
2023/10/06 01:39:51;;;;;;;12.50;5.13;;;;;;;;;;5028194;28;20185;-89
2023/10/06 01:42:24;;;;;;;9.50;5.40;;;;;;;;;;5026485;28;20190;-89
2023/10/06 01:44:49;;;;;;;8.83;5.40;;;;;;;;;;5024701;28;20242;-89
2023/10/06 01:47:18;;;;;;;8.37;5.10;;;;;;;;;;5020722;28;20266;-89
2023/10/06 01:49:44;;;;;;;14.10;5.97;;;;;;;;;;5026731;28;20233;-88
2023/10/06 01:52:09;;;;;;;9.50;5.10;;;;;;;;;;5021910;28;20463;-88
2023/10/06 01:54:34;;;;;;;11.30;6.33;;;;;;;;;;5022213;28;20185;-88
2023/10/06 01:57:10;;;;;;;12.70;6.00;;;;;;;;;;5028481;28;20187;-90
2023/10/06 01:59:35;;;;;;;11.23;5.93;;;;;;;;;;5027663;28;20203;-89
2023/10/06 02:02:01;;;;;;;11.93;5.83;;;;;;;;;;5024074;28;20247;-90
2023/10/06 02:04:33;;;;;;;10.50;5.70;;;;;;;;;;5025503;28;20179;-90
2023/10/06 02:06:59;;;;;;;12.37;6.10;;;;;;;;;;5028707;28;20190;-88
2023/10/06 02:09:25;;;;;;;11.40;5.67;;;;;;;;;;5017341;28;20185;-89
2023/10/06 02:11:50;;;;;;;7.60;5.30;;;;;;;;;;5023423;28;20230;-88
2023/10/06 02:14:17;;;;;;;10.83;5.93;;;;;;;;;;5029147;28;20241;-89
2023/10/06 02:16:45;;;;;;;11.27;5.60;;;;;;;;;;5022296;28;20179;-89
2023/10/06 02:19:12;;;;;;;9.27;5.27;;;;;;;;;;5024701;28;20191;-89
2023/10/06 02:21:42;;;;;;;12.40;6.17;;;;;;;;;;5028972;28;20325;-88
2023/10/06 02:24:09;;;;;;;14.57;6.03;;;;;;;;;;5024127;28;20210;-88
2023/10/06 02:26:37;;;;;;;15.90;6.67;;;;;;;;;;5023110;28;20250;-88
2023/10/06 02:29:07;;;;;;;9.60;6.60;;;;;;;;;;5028304;28;20209;-89
2023/10/06 02:31:35;;;;;;;12.93;6.47;;;;;;;;;;5026439;28;20523;-90
2023/10/06 02:34:00;;;;;;;14.10;6.63;;;;;;;;;;5027061;28;20183;-89
2023/10/06 02:36:26;;;;;;;12.30;6.27;;;;;;;;;;5025975;28;20210;-89
2023/10/06 02:38:51;;;;;;;12.07;7.03;;;;;;;;;;5022796;28;20181;-88
2023/10/06 02:41:21;;;;;;;15.53;6.27;;;;;;;;;;5028321;28;20218;-89
2023/10/06 02:43:47;;;;;;;13.73;6.33;;;;;;;;;;5021949;28;20179;-89
2023/10/06 02:46:14;;;;;;;12.17;6.90;;;;;;;;;;5028991;28;20261;-88
2023/10/06 02:48:48;;;;;;;11.93;6.60;;;;;;;;;;5023205;28;20187;-89
2023/10/06 02:51:32;;;;;;;16.67;8.13;;;;;;;;;;5024798;28;20235;-89
2023/10/06 02:54:13;;;;;;;10.07;6.87;;;;;;;;;;5020817;28;20210;-89
2023/10/06 02:56:38;;;;;;;11.47;6.20;;;;;;;;;;5023292;28;20186;-89
2023/10/06 02:59:20;;;;;;;15.40;6.33;;;;;;;;;;5023412;28;20195;-89
2023/10/06 03:01:51;;;;;;;15.97;7.67;;;;;;;;;;5024350;28;20241;-89
2023/10/06 03:04:17;;;;;;;10.80;5.47;;;;;;;;;;5021696;28;20230;-89
2023/10/06 03:06:42;;;;;;;14.17;6.73;;;;;;;;;;5022102;28;20199;-88
2023/10/06 03:09:07;;;;;;;9.27;6.00;;;;;;;;;;5025685;28;20213;-89
2023/10/06 03:11:33;;;;;;;10.63;6.63;;;;;;;;;;5022040;28;20195;-89
2023/10/06 03:13:59;;;;;;;14.43;6.57;;;;;;;;;;5024445;28;20198;-88
2023/10/06 03:16:25;;;;;;;13.00;6.07;;;;;;;;;;5026311;28;20176;-89
2023/10/06 03:18:52;;;;;;;13.47;6.13;;;;;;;;;;5023696;28;20214;-88
2023/10/06 03:21:17;;;;;;;9.53;6.33;;;;;;;;;;5027023;28;20186;-89
2023/10/06 03:23:47;;;;;;;16.13;6.50;;;;;;;;;;5017964;28;20194;-89
2023/10/06 03:26:22;;;;;;;10.87;6.07;;;;;;;;;;5023447;28;20180;-89
2023/10/06 03:28:50;;;;;;;13.00;6.13;;;;;;;;;;5029564;28;20175;-90
2023/10/06 03:33:46;;;;;;;17.20;6.10;;;;;;;;;;5020730;28;20180;-89
2023/10/06 03:36:15;;;;;;;15.53;6.77;;;;;;;;;;5022482;28;20271;-89
2023/10/06 03:38:44;;;;;;;8.73;5.57;;;;;;;;;;5025265;28;20183;-88
2023/10/06 03:41:18;;;;;;;8.90;5.27;;;;;;;;;;5026225;28;20187;-90
2023/10/06 03:43:51;;;;;;;11.70;5.90;;;;;;;;;;5022912;28;20245;-89
2023/10/06 03:46:18;;;;;;;9.33;5.50;;;;;;;;;;5042312;28;20310;-89
2023/10/06 03:48:44;;;;;;;12.57;4.70;;;;;;;;;;5024501;28;20196;-89
2023/10/06 03:51:09;;;;;;;9.63;4.83;;;;;;;;;;5020194;28;20210;-89
2023/10/06 03:53:35;;;;;;;12.87;5.17;;;;;;;;;;5031838;28;20175;-88
2023/10/06 03:56:00;;;;;;;8.60;4.93;;;;;;;;;;5024947;28;20175;-90
2023/10/06 03:58:28;;;;;;;8.47;5.70;;;;;;;;;;5023465;28;20199;-88
2023/10/06 04:00:53;;;;;;;16.10;5.57;;;;;;;;;;5029808;28;20272;-89
2023/10/06 04:03:18;;;;;;;11.83;5.67;;;;;;;;;;5022401;28;20270;-90
2023/10/06 04:05:48;;;;;;;11.07;7.20;;;;;;;;;;5031024;28;20179;-89
2023/10/06 04:08:18;;;;;;;12.03;6.00;;;;;;;;;;5030379;28;20202;-89
2023/10/06 04:10:45;;;;;;;10.40;5.37;;;;;;;;;;5026733;28;20195;-89
2023/10/06 04:13:10;;;;;;;13.63;5.33;;;;;;;;;;5026403;28;20179;-89
2023/10/06 04:15:39;;;;;;;9.27;6.87;;;;;;;;;;5026430;28;20191;-90
2023/10/06 04:18:11;;;;;;;11.57;5.20;;;;;;;;;;5041113;28;20188;-90
2023/10/06 04:20:40;;;;;;;12.00;5.77;;;;;;;;;;5025888;28;20188;-89
2023/10/06 04:23:07;;;;;;;10.23;5.63;;;;;;;;;;5019973;28;20187;-89
2023/10/06 04:25:37;;;;;;;9.27;5.77;;;;;;;;;;5027403;28;20187;-89
2023/10/06 04:28:03;;;;;;;11.13;5.70;;;;;;;;;;5027596;28;20190;-88
2023/10/06 04:30:29;;;;;;;10.53;6.17;;;;;;;;;;5030315;28;20207;-90
2023/10/06 04:32:55;;;;;;;10.73;5.43;;;;;;;;;;5025243;28;20179;-90
2023/10/06 04:35:24;;;;;;;12.57;5.87;;;;;;;;;;5031662;28;20256;-89
2023/10/06 04:37:49;;;;;;;11.23;5.97;;;;;;;;;;5028707;28;20190;-89
2023/10/06 04:40:18;;;;;;;9.80;4.97;;;;;;;;;;5026019;28;20186;-89
2023/10/06 04:42:45;;;;;;;13.77;6.23;;;;;;;;;;5021965;28;20268;-89
2023/10/06 04:45:12;;;;;;;13.07;5.57;;;;;;;;;;5029273;28;20234;-89
2023/10/06 04:47:40;;;;;;;8.33;5.40;;;;;;;;;;5014536;28;20363;-89
2023/10/06 04:50:09;;;;;;;10.77;5.30;;;;;;;;;;5031773;28;20225;-89
2023/10/06 04:52:34;;;;;;;11.37;4.97;;;;;;;;;;5027804;28;20182;-89
2023/10/06 04:55:02;;;;;;;13.53;5.20;;;;;;;;;;5032088;28;20182;-89
2023/10/06 04:57:28;;;;;;;10.03;4.60;;;;;;;;;;5028759;28;20178;-90
2023/10/06 04:59:53;;;;;;;11.77;5.37;;;;;;;;;;5030554;28;20202;-90
2023/10/06 05:02:18;;;;;;;16.57;8.80;;;;;;;;;;5025732;28;20187;-88
2023/10/06 05:04:44;;;;;;;9.53;6.17;;;;;;;;;;5030159;28;20179;-89
2023/10/06 05:07:09;;;;;;;15.83;6.33;;;;;;;;;;5029036;28;20182;-89
2023/10/06 05:09:39;;;;;;;7.50;4.80;;;;;;;;;;5027120;28;20415;-89
2023/10/06 05:12:04;;;;;;;10.87;9.57;;;;;;;;;;5027819;28;20175;-89
2023/10/06 05:14:29;;;;;;;8.43;6.03;;;;;;;;;;5025056;28;20189;-90
2023/10/06 05:16:55;;;;;;;10.23;5.93;;;;;;;;;;5030314;28;20193;-90
2023/10/06 05:19:21;;;;;;;9.33;5.47;;;;;;;;;;5024173;28;20366;-90
2023/10/06 05:21:47;;;;;;;9.83;5.07;;;;;;;;;;5021366;28;20184;-90
2023/10/06 05:24:12;;;;;;;11.00;6.40;;;;;;;;;;5019351;28;20188;-89
2023/10/06 05:26:37;;;;;;;52.90;9.33;;;;;;;;;;5027644;28;20233;-90
2023/10/06 05:29:03;;;;;;;11.70;5.50;;;;;;;;;;5024519;28;20234;-89
2023/10/06 05:31:28;;;;;;;8.23;4.80;;;;;;;;;;5030360;28;20202;-90
2023/10/06 05:33:53;;;;;;;10.27;5.40;;;;;;;;;;5022630;28;20179;-89
2023/10/06 05:36:19;;;;;;;9.43;4.80;;;;;;;;;;5034085;28;20175;-89
2023/10/06 05:38:45;;;;;;;9.67;6.07;;;;;;;;;;5025367;28;20175;-89
2023/10/06 05:41:15;;;;;;;13.87;8.77;;;;;;;;;;5027157;28;20181;-89
2023/10/06 05:43:40;;;;;;;10.40;4.83;;;;;;;;;;5024347;28;20272;-89
2023/10/06 05:46:05;;;;;;;10.17;5.07;;;;;;;;;;5028418;28;20317;-89
2023/10/06 05:48:31;;;;;;;59.87;10.43;;;;;;;;;;5027200;28;20210;-90
2023/10/06 05:51:05;;;;;;;7.10;4.77;;;;;;;;;;5024473;28;20208;-87
2023/10/06 05:53:34;;;;;;;10.53;5.13;;;;;;;;;;5021198;28;20175;-89
2023/10/06 05:56:02;;;;;;;8.63;5.77;;;;;;;;;;5017867;28;20175;-89
2023/10/06 05:58:30;;;;;;;23.00;6.87;;;;;;;;;;5028394;28;20202;-89
2023/10/06 06:01:05;;;;;;;12.47;7.67;;;;;;;;;;5028131;28;20175;-90
2023/10/06 06:03:30;;;;;;;13.53;6.87;;;;;;;;;;5020903;28;20180;-89
2023/10/06 06:05:57;;;;;;;11.67;5.50;;;;;;;;;;5028527;28;20175;-89
2023/10/06 06:08:23;;;;;;;6.40;4.30;;;;;;;;;;5026607;28;20186;-89
2023/10/06 06:10:48;;;;;;;8.57;4.73;;;;;;;;;;5026910;28;20202;-88
2023/10/06 06:13:14;;;;;;;12.43;5.40;;;;;;;;;;5022268;28;20183;-88
2023/10/06 06:15:40;;;;;;;10.03;5.40;;;;;;;;;;5023808;28;20179;-89
2023/10/06 06:18:05;;;;;;;9.40;5.83;;;;;;;;;;5021053;28;20183;-89
2023/10/06 06:20:30;;;;;;;25.57;5.27;;;;;;;;;;5018734;28;20209;-89
2023/10/06 06:22:59;;;;;;;11.53;4.83;;;;;;;;;;5023891;28;20171;-89
2023/10/06 06:25:28;;;;;;;13.53;5.70;;;;;;;;;;5026561;28;20190;-90
2023/10/06 06:27:54;;;;;;;8.57;4.70;;;;;;;;;;5020603;28;20236;-90
2023/10/06 06:30:20;;;;;;;11.37;5.07;;;;;;;;;;5023784;28;20198;-88
2023/10/06 06:32:48;;;;;;;7.87;4.30;;;;;;;;;;5016225;28;20198;-89
2023/10/06 06:35:13;;;;;;;9.00;5.30;;;;;;;;;;5022908;28;20229;-90
2023/10/06 06:37:41;;;;;;;9.10;5.33;;;;;;;;;;5024873;28;20183;-89
2023/10/06 06:40:10;;;;;;;7.17;4.90;;;;;;;;;;5025598;28;20186;-89
2023/10/06 06:42:35;;;;;;;11.53;5.07;;;;;;;;;;5020605;28;20183;-89
2023/10/06 06:45:01;;;;;;;9.30;4.90;;;;;;;;;;5027064;28;20219;-90
2023/10/06 06:47:26;;;;;;;10.13;5.33;;;;;;;;;;5025873;28;20190;-90
2023/10/06 06:49:52;;;;;;;10.00;4.50;;;;;;;;;;5024561;28;20252;-89
2023/10/06 06:52:21;;;;;;;9.57;5.30;;;;;;;;;;5022403;28;20219;-89
2023/10/06 06:54:47;;;;;;;10.00;5.73;;;;;;;;;;5028199;28;20175;-88
2023/10/06 06:57:13;;;;;;;8.53;6.27;;;;;;;;;;5025148;28;20324;-89
2023/10/06 06:59:39;;;;;;;11.07;5.83;;;;;;;;;;5026959;28;20282;-89
2023/10/06 07:02:04;;;;;;;11.00;5.63;;;;;;;;;;5024289;28;20314;-89
2023/10/06 07:04:30;;;;;;;9.20;5.57;;;;;;;;;;5024537;28;20179;-89
2023/10/06 07:06:55;;;;;;;7.47;4.30;;;;;;;;;;5022609;28;20194;-89
2023/10/06 07:09:22;;;;;;;11.57;4.93;;;;;;;;;;5025857;28;20171;-88
2023/10/06 07:11:48;;;;;;;8.90;4.77;;;;;;;;;;5020370;28;20202;-90
2023/10/06 07:14:14;;;;;;;7.57;4.63;;;;;;;;;;5027413;28;20175;-89
2023/10/06 07:16:42;;;;;;;8.17;4.90;;;;;;;;;;5025549;28;20192;-88
2023/10/06 07:19:07;;;;;;;7.57;4.93;;;;;;;;;;5022030;28;20176;-89
2023/10/06 07:21:32;;;;;;;10.00;4.83;;;;;;;;;;5026874;28;20186;-90
2023/10/06 07:23:57;;;;;;;8.77;4.63;;;;;;;;;;5019445;28;20319;-90
2023/10/06 07:26:23;;;;;;;9.83;4.73;;;;;;;;;;5027314;28;20238;-88
2023/10/06 07:28:56;;;;;;;7.20;4.00;;;;;;;;;;5021589;28;20236;-90
2023/10/06 07:31:21;;;;;;;8.07;4.33;;;;;;;;;;5027276;28;20249;-88
2023/10/06 07:33:54;;;;;;;7.23;4.97;;;;;;;;;;5026991;28;20172;-89
2023/10/06 07:36:19;;;;;;;7.57;4.40;;;;;;;;;;5039201;28;20182;-88
2023/10/06 07:38:45;;;;;;;7.90;4.53;;;;;;;;;;5029779;28;20171;-89
2023/10/06 07:41:23;;;;;;;6.77;4.17;;;;;;;;;;5029026;28;20226;-88
2023/10/06 07:43:48;;;;;;;8.03;4.13;;;;;;;;;;5024619;28;20179;-88
2023/10/06 07:46:15;;;;;;;8.97;5.20;;;;;;;;;;5027840;28;20227;-89
2023/10/06 07:48:41;;;;;;;9.00;4.80;;;;;;;;;;5026833;28;20189;-88
2023/10/06 07:51:07;;;;;;;8.90;4.10;;;;;;;;;;5029055;28;20195;-86
2023/10/06 07:53:35;;;;;;;18.33;5.30;;;;;;;;;;5023196;28;20187;-88
2023/10/06 07:56:06;;;;;;;8.47;4.93;;;;;;;;;;5024990;28;20180;-88
2023/10/06 07:58:32;;;;;;;7.80;4.07;;;;;;;;;;5030096;28;20201;-88
2023/10/06 08:00:57;;;;;;;37.97;6.70;;;;;;;;;;5030315;28;20191;-88
2023/10/06 08:03:22;;;;;;;9.77;5.23;;;;;;;;;;5021722;28;20257;-90
2023/10/06 08:05:48;;;;;;;6.67;4.47;;;;;;;;;;5030139;28;20234;-89
2023/10/06 08:08:13;;;;;;;6.80;4.20;;;;;;;;;;5022756;28;20190;-88
2023/10/06 08:10:38;;;;;;;8.10;4.50;;;;;;;;;;5032774;28;20207;-89
2023/10/06 08:13:04;;;;;;;6.20;4.33;;;;;;;;;;5031079;28;20178;-89
2023/10/06 08:15:32;;;;;;;7.57;3.60;;;;;;;;;;5029746;28;20189;-89
2023/10/06 08:17:57;;;;;;;5.93;3.90;;;;;;;;;;5027676;28;20189;-90
2023/10/06 08:20:24;;;;;;;8.27;3.70;;;;;;;;;;5030348;28;20186;-89
2023/10/06 08:22:49;;;;;;;7.37;4.07;;;;;;;;;;5028068;28;20190;-88
2023/10/06 08:25:15;;;;;;;7.50;3.93;;;;;;;;;;5030310;28;20178;-88
2023/10/06 08:27:44;;;;;;;6.27;3.87;;;;;;;;;;5024644;28;20193;-88
2023/10/06 08:30:16;;;;;;;10.50;3.97;;;;;;;;;;5029502;28;20212;-89
2023/10/06 08:32:44;;;;;;;9.63;3.80;;;;;;;;;;5024384;28;20174;-89
2023/10/06 08:35:13;;;;;;;6.27;3.83;;;;;;;;;;5028412;28;20183;-88
2023/10/06 08:37:39;;;;;;;5.17;3.53;;;;;;;;;;5021825;28;20192;-88
2023/10/06 08:40:07;;;;;;;9.17;3.70;;;;;;;;;;5030243;28;20181;-90
2023/10/06 08:42:34;;;;;;;7.60;4.20;;;;;;;;;;5027467;28;20183;-91
2023/10/06 08:45:00;;;;;;;6.23;3.60;;;;;;;;;;5027758;28;20225;-89
2023/10/06 08:47:26;;;;;;;4.60;3.00;;;;;;;;;;5026064;28;20189;-88
2023/10/06 08:49:52;;;;;;;4.37;3.13;;;;;;;;;;5026067;28;20177;-89
2023/10/06 08:52:18;;;;;;;4.13;3.20;;;;;;;;;;5023805;28;20181;-90
2023/10/06 08:54:45;;;;;;;7.07;3.10;;;;;;;;;;5028932;28;20181;-90
2023/10/06 08:57:11;;;;;;;7.13;3.17;;;;;;;;;;5031251;28;20182;-89
2023/10/06 08:59:37;;;;;;;9.83;3.90;;;;;;;;;;5025092;28;20209;-88
2023/10/06 09:02:03;;;;;;;8.60;4.13;;;;;;;;;;5023575;28;20180;-88
2023/10/06 09:04:34;;;;;;;7.07;2.80;;;;;;;;;;5023106;28;20237;-90
2023/10/06 09:07:12;;;;;;;6.67;3.63;;;;;;;;;;5027794;28;20279;-89
2023/10/06 09:09:38;;;;;;;6.13;3.87;;;;;;;;;;5026124;28;20176;-89
2023/10/06 09:12:03;;;;;;;4.70;3.27;;;;;;;;;;5018887;28;20181;-88
2023/10/06 09:14:29;;;;;;;12.90;4.63;;;;;;;;;;5027513;28;20194;-88
2023/10/06 09:16:58;;;;;;;10.70;3.83;;;;;;;;;;5028078;28;20274;-90
2023/10/06 09:19:23;;;;;;;18.57;4.70;;;;;;;;;;5024009;28;20202;-88
2023/10/06 09:21:59;;;;;;;9.73;3.93;;;;;;;;;;5024032;28;20217;-89
2023/10/06 09:24:25;;;;;;;4.83;2.93;;;;;;;;;;5013668;28;20276;-89
2023/10/06 09:26:50;;;;;;;6.57;4.13;;;;;;;;;;5026332;28;20270;-89
2023/10/06 09:29:28;;;;;;;7.57;4.40;;;;;;;;;;5028484;28;20208;-88
2023/10/06 09:31:57;;;;;;;7.37;3.73;;;;;;;;;;5020416;28;20205;-88
2023/10/06 09:34:26;;;;;;;6.83;3.83;;;;;;;;;;5027166;28;20206;-89
2023/10/06 09:36:51;;;;;;;6.90;3.70;;;;;;;;;;5030161;28;20184;-90
2023/10/06 09:39:32;;;;;;;5.60;3.73;;;;;;;;;;5023791;28;20183;-90
2023/10/06 09:42:00;;;;;;;4.93;3.20;;;;;;;;;;5023019;28;20232;-89
2023/10/06 09:44:26;;;;;;;7.63;4.30;;;;;;;;;;5022582;28;20209;-89
2023/10/06 09:46:54;;;;;;;5.97;3.47;;;;;;;;;;5027883;28;20212;-90
2023/10/06 09:49:21;;;;;;;6.97;3.80;;;;;;;;;;5028358;28;20191;-89
2023/10/06 09:51:47;;;;;;;5.33;3.27;;;;;;;;;;5032079;28;20203;-89
2023/10/06 09:54:12;;;;;;;8.23;3.70;;;;;;;;;;5029191;28;20182;-90
2023/10/06 09:56:40;;;;;;;5.93;3.07;;;;;;;;;;5033277;28;20176;-90
2023/10/06 09:59:07;;;;;;;7.97;3.77;;;;;;;;;;5020641;28;20200;-90
2023/10/06 10:01:34;;;;;;;6.90;3.43;;;;;;;;;;5026087;28;20191;-89
2023/10/06 10:04:01;;;;;;;83.63;11.83;;;;;;;;;;5026752;28;20185;-90
2023/10/06 10:06:26;;;;;;;4.43;3.30;;;;;;;;;;5027393;28;20277;-89
2023/10/06 10:08:52;;;;;;;8.00;3.37;;;;;;;;;;5026378;28;20284;-89
2023/10/06 10:11:39;;;;;;;4.37;3.70;;;;;;;;;;5029965;28;20298;-90
2023/10/06 10:14:19;;;;;;;13.33;3.90;;;;;;;;;;5026600;28;20194;-90
2023/10/06 10:17:03;;;;;;;5.57;3.20;;;;;;;;;;5022659;28;20175;-89
2023/10/06 10:19:30;;;;;;;9.87;4.40;;;;;;;;;;5034835;28;20172;-89
2023/10/06 10:21:55;;;;;;;6.87;3.60;;;;;;;;;;5029756;28;20198;-91
2023/10/06 10:24:21;;;;;;;8.53;4.00;;;;;;;;;;5048750;28;20189;-90
2023/10/06 10:26:47;;;;;;;7.70;3.70;;;;;;;;;;5027379;28;20278;-89
2023/10/06 10:29:12;;;;;;;16.30;4.87;;;;;;;;;;5028228;28;20179;-89
2023/10/06 10:31:58;;;;;;;6.40;4.33;;;;;;;;;;5027702;28;20202;-90
2023/10/06 10:34:25;;;;;;;5.53;3.77;;;;;;;;;;5026216;28;20188;-90
2023/10/06 10:37:05;;;;;;;6.33;3.83;;;;;;;;;;5029412;28;20188;-90
2023/10/06 10:39:40;;;;;;;8.73;3.90;;;;;;;;;;5027382;28;20181;-91
2023/10/06 10:42:06;;;;;;;15.38;4.78;;;;;;;;;;5021345;28;20382;-90
2023/10/06 10:44:31;;;;;;;5.87;3.70;;;;;;;;;;5030416;28;20221;-89
2023/10/06 10:47:01;;;;;;;10.50;4.53;;;;;;;;;;5028875;28;20242;-90
2023/10/06 10:49:32;;;;;;;8.23;4.43;;;;;;;;;;5025325;28;20180;-90
2023/10/06 10:52:05;;;;;;;7.40;3.90;;;;;;;;;;5018969;28;20221;-90
2023/10/06 10:54:35;;;;;;;6.63;3.63;;;;;;;;;;5020046;28;20186;-89
2023/10/06 10:57:09;;;;;;;6.63;3.53;;;;;;;;;;5023137;28;20206;-90
2023/10/06 10:59:53;;;;;;;5.63;3.90;;;;;;;;;;5040494;28;20193;-90
2023/10/06 11:02:19;;;;;;;7.93;4.17;;;;;;;;;;5023015;28;20183;-90
2023/10/06 11:04:45;;;;;;;6.17;3.90;;;;;;;;;;5022712;28;20186;-91
2023/10/06 11:07:12;;;;;;;8.70;4.20;;;;;;;;;;5027907;28;20200;-90
2023/10/06 11:09:46;;;;;;;6.00;3.93;;;;;;;;;;5029006;28;20204;-90
2023/10/06 11:12:21;;;;;;;6.13;3.93;;;;;;;;;;5026879;28;20181;-90
2023/10/06 11:14:49;;;;;;;8.13;4.07;;;;;;;;;;5025829;28;20197;-91
2023/10/06 11:17:20;;;;;;;5.70;3.83;;;;;;;;;;5027244;28;20181;-91
2023/10/06 11:19:46;;;;;;;6.93;4.17;;;;;;;;;;5027914;28;20211;-88
2023/10/06 11:22:11;;;;;;;6.93;4.80;;;;;;;;;;5025222;28;20175;-90
2023/10/06 11:24:36;;;;;;;9.43;5.00;;;;;;;;;;5028183;28;20191;-91
2023/10/06 11:27:23;;;;;;;6.47;3.47;;;;;;;;;;5028741;28;20194;-91
2023/10/06 11:29:59;;;;;;;6.63;3.93;;;;;;;;;;5031643;28;20269;-91
2023/10/06 11:32:26;;;;;;;6.70;3.90;;;;;;;;;;5027206;28;20197;-92
2023/10/06 11:34:52;;;;;;;11.20;5.00;;;;;;;;;;5022244;28;20183;-91
2023/10/06 11:37:18;;;;;;;5.60;3.77;;;;;;;;;;5028950;28;20269;-91
2023/10/06 11:39:45;;;;;;;7.47;4.37;;;;;;;;;;5009422;28;20216;-93
2023/10/06 11:42:25;;;;;;;4.93;3.73;;;;;;;;;;5016010;28;20195;-92
2023/10/06 11:44:54;;;;;;;6.83;3.60;;;;;;;;;;5024811;28;20216;-92
2023/10/06 11:47:21;;;;;;;5.00;3.27;;;;;;;;;;5023502;28;20198;-90
2023/10/06 11:49:53;;;;;;;5.57;4.10;;;;;;;;;;5025918;28;20194;-91
2023/10/06 11:52:18;;;;;;;6.13;3.40;;;;;;;;;;5029058;28;20177;-91
2023/10/06 11:54:44;;;;;;;4.40;3.10;;;;;;;;;;5028432;28;20182;-92
2023/10/06 11:57:09;;;;;;;13.37;4.20;;;;;;;;;;5027818;28;20183;-91
2023/10/06 11:59:34;;;;;;;8.83;4.10;;;;;;;;;;5028476;28;20228;-93
2023/10/06 12:02:09;;;;;;;6.27;3.90;;;;;;;;;;5025818;28;20182;-93
2023/10/06 12:04:34;;;;;;;6.00;3.40;;;;;;;;;;5028501;28;20176;-91
2023/10/06 12:07:00;;;;;;;8.60;3.73;;;;;;;;;;5026471;28;20183;-91
2023/10/06 12:09:29;;;;;;;7.23;3.90;;;;;;;;;;5023547;28;20184;-93
2023/10/06 12:11:55;;;;;;;11.70;4.20;;;;;;;;;;5025728;28;20212;-92
2023/10/06 12:14:21;;;;;;;7.37;3.87;;;;;;;;;;5028579;28;20177;-92
2023/10/06 12:16:46;;;;;;;7.03;3.77;;;;;;;;;;5022941;28;20188;-92
2023/10/06 12:19:12;;;;;;;8.53;3.60;;;;;;;;;;5031516;28;20176;-91
2023/10/06 12:21:37;;;;;;;4.97;3.17;;;;;;;;;;5029131;28;20341;-92
2023/10/06 12:24:02;;;;;;;4.70;2.83;;;;;;;;;;5028768;28;20193;-91
2023/10/06 12:26:28;;;;;;;5.50;3.20;;;;;;;;;;5030283;28;20186;-92
2023/10/06 12:28:54;;;;;;;6.07;3.67;;;;;;;;;;5031258;28;20192;-91
2023/10/06 12:31:19;;;;;;;7.63;3.53;;;;;;;;;;5026311;28;20203;-92
2023/10/06 12:33:45;;;;;;;6.00;3.90;;;;;;;;;;5037424;28;20176;-91
2023/10/06 12:36:12;;;;;;;7.60;3.83;;;;;;;;;;5031316;28;20188;-91
2023/10/06 12:38:39;;;;;;;5.67;3.27;;;;;;;;;;5028675;28;20187;-91
2023/10/06 12:41:06;;;;;;;5.90;3.47;;;;;;;;;;5027254;28;20194;-92
2023/10/06 12:43:35;;;;;;;5.60;3.43;;;;;;;;;;5028555;28;20187;-93
2023/10/06 12:46:03;;;;;;;6.47;3.90;;;;;;;;;;5031777;28;20316;-91
2023/10/06 12:48:30;;;;;;;8.37;3.73;;;;;;;;;;5029364;28;20227;-92
2023/10/06 12:50:55;;;;;;;6.47;3.97;;;;;;;;;;5028534;28;20206;-90
2023/10/06 12:53:21;;;;;;;6.33;3.60;;;;;;;;;;5027507;28;20259;-91
2023/10/06 12:55:56;;;;;;;5.17;3.30;;;;;;;;;;5028817;28;20182;-91
2023/10/06 12:58:21;;;;;;;4.60;3.30;;;;;;;;;;5030497;28;20227;-93
2023/10/06 13:00:46;;;;;;;7.17;3.77;;;;;;;;;;5005017;28;20246;-93
2023/10/06 13:03:17;;;;;;;5.13;3.27;;;;;;;;;;5024818;28;20185;-92
2023/10/06 13:05:43;;;;;;;7.07;4.07;;;;;;;;;;5031430;28;20199;-92
2023/10/06 13:08:09;;;;;;;8.10;4.20;;;;;;;;;;5028910;28;20188;-92
2023/10/06 13:10:35;;;;;;;6.20;3.63;;;;;;;;;;5023335;28;20198;-92
2023/10/06 13:13:06;;;;;;;7.23;3.87;;;;;;;;;;5030471;28;20191;-93
2023/10/06 13:15:31;;;;;;;5.47;3.73;;;;;;;;;;5020000;28;20173;-92
2023/10/06 13:17:56;;;;;;;6.23;3.60;;;;;;;;;;5029068;28;20191;-91
2023/10/06 13:20:22;;;;;;;6.63;3.50;;;;;;;;;;5025444;28;20199;-91
2023/10/06 13:22:47;;;;;;;8.13;3.73;;;;;;;;;;5034119;28;20191;-91
2023/10/06 13:25:13;;;;;;;8.23;4.23;;;;;;;;;;5027682;28;20231;-93
2023/10/06 13:27:39;;;;;;;6.13;4.10;;;;;;;;;;5016205;28;20182;-91
2023/10/06 13:30:14;;;;;;;5.00;3.70;;;;;;;;;;5027912;28;20274;-91
2023/10/06 13:32:45;;;;;;;5.73;3.77;;;;;;;;;;5025285;28;20253;-91
2023/10/06 13:35:16;;;;;;;8.37;4.10;;;;;;;;;;5031108;28;20181;-92
2023/10/06 13:37:41;;;;;;;6.50;3.57;;;;;;;;;;5029597;28;20192;-92
2023/10/06 13:40:10;;;;;;;6.23;3.70;;;;;;;;;;5021205;28;20352;-92
2023/10/06 13:42:36;;;;;;;5.33;3.57;;;;;;;;;;5025629;28;20271;-92
2023/10/06 13:45:04;;;;;;;6.40;4.03;;;;;;;;;;5027660;28;20212;-92
2023/10/06 13:47:37;;;;;;;6.20;3.80;;;;;;;;;;5031122;28;20182;-92
2023/10/06 13:50:04;;;;;;;7.73;3.80;;;;;;;;;;5030362;28;20268;-91
2023/10/06 13:52:29;;;;;;;5.53;3.27;;;;;;;;;;5026096;28;20243;-95
2023/10/06 13:54:54;;;;;;;10.63;4.07;;;;;;;;;;5028136;28;20181;-91
2023/10/06 13:57:20;;;;;;;7.43;4.30;;;;;;;;;;5026867;28;20177;-91
2023/10/06 13:59:46;;;;;;;5.73;3.43;;;;;;;;;;5046655;28;20204;-93
2023/10/06 14:02:12;;;;;;;5.07;3.60;;;;;;;;;;5026619;28;20180;-92
2023/10/06 14:04:37;;;;;;;6.00;3.40;;;;;;;;;;5024636;28;20185;-91
2023/10/06 14:07:05;;;;;;;4.30;3.07;;;;;;;;;;5025868;28;20207;-93
2023/10/06 14:09:31;;;;;;;4.70;3.30;;;;;;;;;;5025534;28;20256;-92
2023/10/06 14:11:56;;;;;;;6.73;3.47;;;;;;;;;;5038780;28;20206;-92
2023/10/06 14:17:20;;;;;;;4.27;3.47;;;;;;;;;;5025703;28;20190;-90
2023/10/06 14:19:46;;;;;;;5.27;3.63;;;;;;;;;;5030497;28;20264;-91
2023/10/06 14:22:12;;;;;;;19.53;6.13;;;;;;;;;;5029167;28;20212;-91
2023/10/06 14:24:39;;;;;;;6.97;4.13;;;;;;;;;;5026517;28;20200;-91
2023/10/06 14:27:05;;;;;;;8.93;3.73;;;;;;;;;;5022268;28;20193;-93
2023/10/06 14:29:31;;;;;;;6.07;3.53;;;;;;;;;;5022415;28;20187;-93
2023/10/06 14:32:11;;;;;;;7.60;3.90;;;;;;;;;;5034078;28;20232;-93
2023/10/06 14:34:56;;;;;;;6.30;4.00;;;;;;;;;;5019926;28;20183;-92
2023/10/06 14:37:38;;;;;;;4.80;3.60;;;;;;;;;;5024254;28;20316;-92
2023/10/06 14:46:01;;;;;;;6.60;4.67;;;;;;;;;;5030846;28;20227;-92
2023/10/06 14:48:29;;;;;;;7.07;4.07;;;;;;;;;;5016648;28;20186;-91
2023/10/06 14:50:58;;;;;;;7.40;3.90;;;;;;;;;;5018979;28;20462;-92
2023/10/06 14:53:25;;;;;;;5.77;3.90;;;;;;;;;;5027545;28;20186;-91